Willmar, MN

7:47 PM CST on December 17, 2017 (GMT -0600)
Willmar

Weather History for KBDH - April, 2013

Change the Weather History Date:

Sunday, April 14, 2013

  Actual Average (KBBB) Record (KBBB)
Temperature  
Mean Temperature 36 °F -  
Max Temperature 39 °F 55 °F 93 °F (2003)
Min Temperature 33 °F 34 °F 17 °F (2014)
Degree Days  
Heating Degree Days 29    
Moisture  
Dew Point 26 °F    
Average Humidity 66    
Maximum Humidity 81    
Minimum Humidity 56    
Precipitation  
Precipitation 0.20 in - - ()
Sea Level Pressure  
Sea Level Pressure 29.62 in    
Wind  
Wind Speed 12 mph (East)    
Max Wind Speed 26 mph    
Max Gust Speed 37 mph    
Visibility 5 miles    
Events Snow    
Averages and records for this station are not official NWS values.
T = Trace of Precipitation, MM = Missing Value Source: NWS Daily Summary

Daily Weather History Graph

Daily Weather History Graph

Search for Another Location

Airport or City:

Trip Planner

Search our weather history database for the weather conditions in past years. The results will help you decide how hot, cold, wet, or windy it might be!

Date:

Astronomy

Apr. 14, 2013 Rise Set
Actual Time 6:36 AM CDT 8:05 PM CDT
Civil Twilight 6:06 AM CDT 8:36 PM CDT
Nautical Twilight 5:29 AM CDT 9:13 PM CDT
Astronomical Twilight 4:49 AM CDT 9:53 PM CDT
Moon 9:06 AM CDT (4/14) No Moon Set
Length of Visible Light 14h 29m
Length of Day
13h 28m
Waxing Crescent, 17% of the Moon is Illuminated
Apr 14
Waxing Crescent
Apr 18
First Quarter
Apr 25
Full
May 2
Last Quarter
May 9
New

Hourly Weather History & Observations

Time (CDT) Temp. Windchill Dew Point Humidity Pressure Visibility Wind Dir Wind Speed Gust Speed Precip Events Conditions
12:15 AM 35.6 °F 29.2 °F 21.2 °F 56% 29.90 in 10.0 mi East 8.1 mph - N/A   Scattered Clouds
12:35 AM 35.6 °F 28.6 °F 21.2 °F 56% 29.90 in 10.0 mi East 9.2 mph - N/A   Scattered Clouds
12:55 AM 35.6 °F 28.6 °F 21.2 °F 56% 29.90 in 10.0 mi East 9.2 mph - N/A   Clear
1:15 AM 35.6 °F 28.6 °F 21.2 °F 56% 29.90 in 10.0 mi East 9.2 mph - N/A   Scattered Clouds
1:35 AM 35.6 °F 28.0 °F 21.2 °F 56% 29.89 in 10.0 mi East 10.4 mph - N/A   Scattered Clouds
1:55 AM 35.6 °F 27.1 °F 21.2 °F 56% 29.87 in 4.0 mi East 12.7 mph - N/A Snow Light Snow
2:15 AM 35.6 °F 26.6 °F 23.0 °F 60% 29.85 in 2.5 mi East 13.8 mph - N/A Snow Light Snow
2:35 AM 35.6 °F 26.6 °F 24.8 °F 65% 29.85 in 4.0 mi East 13.8 mph - N/A Snow Light Snow
2:55 AM 35.6 °F 26.2 °F 24.8 °F 65% 29.84 in 5.0 mi East 15.0 mph - N/A Snow Light Snow
3:15 AM 35.6 °F 26.2 °F 23.0 °F 60% 29.83 in 4.0 mi East 15.0 mph - N/A Snow Light Snow
3:35 AM 35.6 °F 26.2 °F 24.8 °F 65% 29.84 in 3.0 mi East 15.0 mph 19.6 mph N/A Snow Light Snow
3:55 AM 35.6 °F 26.6 °F 24.8 °F 65% 29.83 in 4.0 mi East 13.8 mph - N/A Snow Light Snow
4:15 AM 35.6 °F 26.2 °F 24.8 °F 65% 29.83 in 7.0 mi East 15.0 mph - N/A Snow Light Snow
4:35 AM 35.6 °F 25.5 °F 24.8 °F 65% 29.81 in 7.0 mi East 17.3 mph - N/A Snow Light Snow
4:55 AM 35.6 °F 26.2 °F 23.0 °F 60% 29.82 in 5.0 mi East 15.0 mph - N/A Snow Light Snow
5:15 AM 35.6 °F 26.2 °F 23.0 °F 60% 29.82 in 5.0 mi East 15.0 mph 20.7 mph N/A Snow Light Snow
5:35 AM 35.6 °F 25.5 °F 23.0 °F 60% 29.80 in 4.0 mi East 17.3 mph - N/A Snow Light Snow
5:55 AM 35.6 °F 24.8 °F 23.0 °F 60% 29.80 in 10.0 mi East 19.6 mph 24.2 mph N/A Snow Light Snow
6:15 AM 35.6 °F 25.2 °F 23.0 °F 60% 29.78 in 10.0 mi East 18.4 mph 25.3 mph N/A Snow Light Snow
6:35 AM 35.6 °F 24.2 °F 21.2 °F 56% 29.77 in 10.0 mi East 21.9 mph 27.6 mph N/A   Overcast
7:15 AM 33.8 °F 22.5 °F 21.2 °F 60% 29.75 in 5.0 mi East 19.6 mph 31.1 mph N/A   Haze
7:35 AM 33.8 °F 21.9 °F 21.2 °F 60% 29.73 in 5.0 mi East 21.9 mph 32.2 mph N/A   Overcast
7:55 AM 33.8 °F 21.6 °F 21.2 °F 60% 29.73 in 4.0 mi East 23.0 mph 32.2 mph N/A   Haze
8:15 AM 33.8 °F 21.6 °F 21.2 °F 60% 29.72 in 7.0 mi East 23.0 mph 29.9 mph N/A   Overcast
8:35 AM 35.6 °F 23.7 °F 21.2 °F 56% 29.72 in 5.0 mi East 24.2 mph 28.8 mph N/A   Haze
8:55 AM 35.6 °F 23.7 °F 21.2 °F 56% 29.69 in 4.0 mi East 24.2 mph 36.8 mph N/A   Haze
9:15 AM 35.6 °F 23.2 °F 21.2 °F 56% 29.68 in 3.0 mi East 26.5 mph 34.5 mph N/A   Haze
9:35 AM 35.6 °F 24.0 °F 21.2 °F 56% 29.67 in 5.0 mi East 23.0 mph 34.5 mph N/A   Haze
9:55 AM 35.6 °F 23.7 °F 21.2 °F 56% 29.65 in 7.0 mi East 24.2 mph 32.2 mph N/A   Overcast
10:15 AM 35.6 °F 23.7 °F 21.2 °F 56% 29.64 in 5.0 mi East 24.2 mph 35.7 mph N/A   Haze
10:35 AM 35.6 °F 23.7 °F 21.2 °F 56% 29.63 in 10.0 mi East 24.2 mph 32.2 mph N/A   Overcast
10:55 AM 35.6 °F 24.5 °F 21.2 °F 56% 29.63 in 7.0 mi East 20.7 mph 34.5 mph N/A   Overcast
11:15 AM 35.6 °F 23.4 °F 21.2 °F 56% 29.62 in 7.0 mi East 25.3 mph 31.1 mph N/A Snow Light Snow
11:35 AM 35.6 °F 23.7 °F 23.0 °F 60% 29.62 in 1.5 mi East 24.2 mph 33.4 mph 0.01 in Snow Light Snow
11:55 AM 35.6 °F 24.8 °F 24.8 °F 65% 29.61 in 1.8 mi East 19.6 mph 25.3 mph 0.02 in   Overcast
12:15 PM 35.6 °F 26.6 °F 26.6 °F 70% 29.60 in 2.5 mi East 13.8 mph - 0.01 in   Overcast
12:35 PM 37.4 °F 29.8 °F 26.6 °F 65% 29.59 in 5.0 mi East 11.5 mph 17.3 mph 0.02 in   Overcast
12:55 PM 37.4 °F 30.3 °F 26.6 °F 65% 29.57 in 4.0 mi East 10.4 mph - 0.03 in   Overcast
1:15 PM 37.4 °F 30.3 °F 28.4 °F 70% 29.56 in 4.0 mi East 10.4 mph - 0.03 in   Overcast
1:35 PM 37.4 °F 30.8 °F 28.4 °F 70% 29.54 in 4.0 mi East 9.2 mph - 0.03 in   Overcast
1:55 PM 37.4 °F 30.8 °F 28.4 °F 70% 29.53 in 4.0 mi East 9.2 mph - 0.05 in   Overcast
2:15 PM 37.4 °F 31.4 °F 28.4 °F 70% 29.51 in 3.0 mi East 8.1 mph - N/A Snow Light Snow
2:35 PM 37.4 °F 32.1 °F 28.4 °F 70% 29.51 in 2.5 mi East 6.9 mph - N/A   Overcast
3:15 PM 37.4 °F 31.4 °F 28.4 °F 70% 29.49 in 2.5 mi East 8.1 mph - 0.01 in Snow Light Snow
3:35 PM 37.4 °F 32.1 °F 28.4 °F 70% 29.47 in 1.2 mi East 6.9 mph - 0.02 in   Overcast
3:55 PM 37.4 °F 32.8 °F 30.2 °F 75% 29.48 in 2.5 mi East 5.8 mph - 0.03 in Snow Light Snow
4:15 PM 37.4 °F 31.4 °F 28.4 °F 70% 29.48 in 2.5 mi East 8.1 mph - 0.01 in   Overcast
4:35 PM 37.4 °F 32.8 °F 28.4 °F 70% 29.47 in 5.0 mi East 5.8 mph - 0.04 in   Overcast
4:55 PM 37.4 °F 34.9 °F 28.4 °F 70% 29.47 in 5.0 mi East 3.5 mph - 0.05 in   Overcast
5:15 PM 37.4 °F 32.8 °F 28.4 °F 70% 29.46 in 2.5 mi East 5.8 mph - 0.01 in   Overcast
5:35 PM 37.4 °F 32.1 °F 28.4 °F 70% 29.46 in 1.5 mi East 6.9 mph - 0.01 in Snow Light Snow
5:55 PM 37.4 °F 32.8 °F 28.4 °F 70% 29.44 in 2.0 mi East 5.8 mph - 0.01 in   Haze
6:15 PM 37.4 °F 32.8 °F 28.4 °F 70% 29.44 in 2.5 mi East 5.8 mph - N/A   Haze
6:35 PM 37.4 °F 32.8 °F 30.2 °F 75% 29.44 in 1.0 mi East 5.8 mph - N/A Snow Light Snow
6:55 PM 37.4 °F 32.8 °F 30.2 °F 75% 29.44 in 3.0 mi East 5.8 mph - 0.01 in Snow Light Snow
7:15 PM 37.4 °F 32.8 °F 30.2 °F 75% 29.45 in 1.8 mi East 5.8 mph - N/A Snow Light Snow
7:35 PM 37.4 °F 32.8 °F 30.2 °F 75% 29.44 in 1.2 mi East 5.8 mph - N/A   Overcast
7:55 PM 37.4 °F 33.8 °F 30.2 °F 75% 29.45 in 1.2 mi East 4.6 mph - N/A   Overcast
8:15 PM 37.4 °F 33.8 °F 30.2 °F 75% 29.44 in 1.8 mi East 4.6 mph - N/A Snow Light Snow
8:35 PM 37.4 °F 34.9 °F 30.2 °F 75% 29.45 in 2.5 mi ESE 3.5 mph - N/A   Haze
8:55 PM 37.4 °F 34.9 °F 30.2 °F 75% 29.46 in 2.5 mi East 3.5 mph - N/A   Haze
9:15 PM 37.4 °F 33.8 °F 30.2 °F 75% 29.45 in 2.0 mi ESE 4.6 mph - N/A   Overcast
9:35 PM 37.4 °F 33.8 °F 30.2 °F 75% 29.45 in 2.5 mi ESE 4.6 mph - N/A   Overcast
9:55 PM 37.4 °F 34.9 °F 30.2 °F 75% 29.45 in 1.8 mi SE 3.5 mph - N/A   Overcast
10:15 PM 37.4 °F 34.9 °F 32.0 °F 81% 29.44 in 3.0 mi SE 3.5 mph - N/A   Overcast
10:35 PM 37.4 °F 34.9 °F 32.0 °F 81% 29.44 in 5.0 mi SSE 3.5 mph - N/A   Haze
10:55 PM 37.4 °F - 32.0 °F 81% 29.44 in 7.0 mi Calm Calm - N/A   Overcast
11:15 PM 39.2 °F - 32.0 °F 75% 29.43 in 10.0 mi Calm Calm - N/A   Overcast
11:35 PM 39.2 °F - 30.2 °F 70% 29.43 in 10.0 mi Calm Calm - N/A   Overcast
11:55 PM 39.2 °F - 30.2 °F 70% 29.43 in 10.0 mi Calm Calm - N/A   Overcast